Tiempo atmosférico en la estación meteorológica de Alfaro, La Rioja (285 m.)



Fecha
DESCASC
Temp. máxima en grados centígrados (hora)
DESCASC
Temp. mínima en grados centígrados (hora)
DESCASC
Temp. media en grados centígrados
DESCASC
Racha de viento máxima en m/sg (hora)
DESCASC
Velocidad máxima media en intervalos de 10 minutos(hora)
DESCASC
Precipitaciones diarias en mm
DESCASC
Precipitaciones de 00:00 a 06:00 en mm
DESCASC
Precipitaciones de 06:00 a 12:00 en mm
DESCASC
Precipitaciones de 12:00 a 18:00 en mm
DESCASC
Precipitaciones de 18:00 a 24:00 en mm
DESCASC
25-04-2019 18.5 (17:20) 7.7 (07:40) 13.1 16.67 (16:30) 10.28 (16:30) 0.8 0.8 0 0 0
24-04-2019 15.7 (14:30) 7.4 (07:30) 11.5 17.22 (13:40) 11.67 (18:10) 7.8 0.2 0 0 7.6
23-04-2019 18.4 (13:30) 9.5 (22:30) 13.9 15 (14:10) 8.06 (14:20) 0.4 0 0 0.4 0
22-04-2019 21.2 (16:50) 6.7 (00:00) 14 10 (16:00) 6.39 (18:40) 0 0 0 0 0
21-04-2019 15.2 (14:00) 9.5 (00:00) 12.3 6.94 (02:10) 4.44 (02:20) 0.2 0.2 0 0 0
20-04-2019 23.1 (17:40) 8.1 (00:00) 15.6 12.5 (21:40) 8.33 (21:40) 0 0 0 0 0
19-04-2019 19 (17:30) 10.5 (00:00) 14.8 7.78 (00:10) 5.28 (00:10) 11 8.6 2.4 0 0
18-04-2019 19.4 (14:50) 11.5 (00:00) 15.4 12.5 (16:30) 8.33 (16:30) 0 0 0 0 0
17-04-2019 22.1 (16:00) 7.5 (00:00) 14.8 13.33 (18:50) 9.17 (18:50) 0 0 0 0 0
16-04-2019 21.5 (17:20) 9.3 (00:00) 15.4 8.61 (23:59) 5.83 (23:59) 0.4 0.4 0 0 0
15-04-2019 23.6 (16:20) 6.6 (00:00) 15.1 15.83 (15:40) 10.83 (15:40) 8 0 0 0 8
14-04-2019 25.6 (15:20) 4.2 (00:00) 14.9 10 (18:10) 6.39 (17:20) 0 0 0 0 0
13-04-2019 23.7 (17:50) 2.5 (00:00) 13.1 8.06 (01:20) 5.28 (01:10) 0 0 0 0 0
12-04-2019 17.8 (16:00) 6.4 (00:00) 12.1 12.78 (14:30) 8.06 (10:50) 0 0 0 0 0
11-04-2019 15.6 (17:10) 6.9 (00:00) 11.3 13.06 (13:40) 8.89 (15:20) 0 0 0 0 0
10-04-2019 16.8 (16:50) 2.6 (00:00) 9.7 12.78 (15:30) 8.61 (15:30) 0 0 0 0 0
09-04-2019 16.7 (14:20) 1.2 (00:00) 9 8.89 (18:20) 5.56 (18:20) 8.6 0 0 3.2 5.4
08-04-2019 17.4 (15:20) 8.2 (00:00) 12.8 14.72 (01:10) 10.28 (01:20) 1.4 0.6 0 0 0.8
07-04-2019 16.6 (15:30) 4.7 (00:00) 10.7 13.33 (14:10) 6.39 (12:00) 0.6 0.6 0 0 0
06-04-2019 15.1 (14:40) 0.8 (00:00) 8 14.72 (12:40) 10.83 (13:20) 0 0 0 0 0
05-04-2019 13.4 (15:50) 5.6 (00:00) 9.5 11.39 (04:20) 7.78 (18:20) 3.8 0 0.2 0 3.6
04-04-2019 15.7 (17:20) -2.9 (-00:0) 6.4 11.11 (18:00) 7.5 (18:00) 0 0 0 0 0
03-04-2019 11.6 (14:40) 2.6 (00:00) 7.1 15.56 (17:00) 10 (17:10) 0.8 0 0 0.8 0
02-04-2019 19.5 (15:50) 5.8 (00:00) 12.7 7.78 (21:00) 4.72 (19:20) 0 0 0 0 0
01-04-2019 16.9 (17:30) 8 (00:00) 12.4 6.67 (13:10) 4.44 (00:30) 3.2 2 0.2 0 1
31-03-2019 16.6 (15:00) 0.8 (00:00) 8.7 7.22 (17:50) 5 (16:50) 1.4 0 0 0 1.4
30-03-2019 20.2 (16:10) 2.2 (00:00) 11.2 9.17 (09:40) 6.39 (09:40) 0 0 0 0 0
29-03-2019 21.5 (15:30) -0.4 (00:00) 10.5 11.67 (19:50) 7.78 (13:50) 0 0 0 0 0
28-03-2019 20.6 (16:30) 4.5 (00:00) 12.6 9.72 (01:00) 6.39 (00:30) 0 0 0 0 0
27-03-2019 19.9 (15:00) 1.1 (00:00) 10.5 12.22 (19:00) 8.33 (16:20) 0 0 0 0 0

Gráficas

Temp. máximas Temp. mínimas Temp. medias Precipitaciones Rachas de viento máximas Velocidades máximas media en intervalos de 10 minutos

Datos horarios

Fecha y hora oficial Temperatura (ºC) Velocidad del viento (km/h) Dirección del viento Racha (km/h) Dirección de racha Precipitación (mm) Presión (hPa) Tendencia (hPa) Humedad (%)
2019-04-25 23:00:00 11.2 15 Sudoeste 25 Sudoeste 0 -- -- 61
2019-04-25 22:00:00 10.3 11 Sudoeste 22 Sudoeste 0 -- -- 68
2019-04-25 21:00:00 12.8 15 Sudoeste 45 Sudoeste 0 -- -- 53
2019-04-25 20:00:00 14.7 29 Sudoeste 53 Oeste 0 -- -- 44
2019-04-25 19:00:00 17.3 32 Oeste 50 Oeste 0 -- -- 37
2019-04-25 18:00:00 17.1 28 Sudoeste 46 Sudoeste 0 -- -- 44
2019-04-25 17:00:00 16.7 28 Sudoeste 60 Sudoeste 0 -- -- 46
2019-04-25 16:00:00 16.4 27 Sudoeste 57 Sudoeste 0 -- -- 44
2019-04-25 15:00:00 18.1 27 Sudoeste 46 Sudoeste 0 -- -- 42
2019-04-25 14:00:00 17 25 Sudoeste 49 Sudoeste 0 -- -- 43
2019-04-25 13:00:00 16.3 24 Sudoeste 46 Sudoeste 0 -- -- 45
2019-04-25 12:00:00 15.4 25 Sudoeste 41 Sur 0 -- -- 56
2019-04-25 11:00:00 13.8 26 Sudoeste 46 Sudoeste 0 -- -- 58
2019-04-25 10:00:00 12.1 26 Sudoeste 41 Sudoeste 0 -- -- 63
2019-04-25 09:00:00 11.1 17 Sur 27 Sudoeste 0 -- -- 68
2019-04-25 08:00:00 8.2 15 Sudoeste 32 Sur 0 -- -- 82
2019-04-25 07:00:00 8.6 6 Sudoeste 15 Noroeste 0 -- -- 93
2019-04-25 06:00:00 9.6 13 Noroeste 18 Sudoeste 0 -- -- 92
2019-04-25 05:00:00 9.8 5 Sudeste 19 Sudeste 0 -- -- 87
2019-04-25 04:00:00 10.8 7 Sur 26 Oeste 0.2 -- -- 92
2019-04-25 03:00:00 11.2 12 Sudeste 21 Sudeste 0.6 -- -- 91
2019-04-25 02:00:00 11.4 12 Sudeste 24 Sudeste 0 -- -- 86
2019-04-25 01:00:00 11.5 15 Sudeste 37 Sudeste 0 -- -- 85
2019-04-25 00:00:00 10.3 17 Sudeste 22 Sudeste 0 -- -- 90
2019-04-24 23:00:00 10.6 13 Este 18 Sudoeste 0.2 -- -- 93
2019-04-24 22:00:00 11.2 7 Norte 21 Noroeste 3 -- -- 94
2019-04-24 21:00:00 11.4 9 Sur 24 Sudeste 1.2 -- -- 89
2019-04-24 20:00:00 11.4 18 Sudeste 45 Sudeste 1.6 -- -- 87
2019-04-24 19:00:00 11.2 28 Sudeste 60 Sudeste 1.6 -- -- 88
2019-04-24 18:00:00 14.2 35 Sudeste 53 Sudeste 0 -- -- 62
2019-04-24 17:00:00 13.3 32 Sudeste 53 Sudeste 0 -- -- 63
2019-04-24 16:00:00 14 22 Sudeste 49 Sudeste 0 -- -- 57
2019-04-24 15:00:00 14.9 31 Sudeste 58 Sur 0 -- -- 53
2019-04-24 14:00:00 13.9 37 Sur 62 Sur 0 -- -- 54
2019-04-24 13:00:00 12.2 20 Sur 40 Sudoeste 0 -- -- 59
2019-04-24 12:00:00 10.3 23 Sur 50 Sur 0 -- -- 61
2019-04-24 11:00:00 10.5 41 Sur 60 Sur 0 -- -- 58
2019-04-24 10:00:00 9.8 19 Sur 40 Sudoeste 0 -- -- 66
2019-04-24 09:00:00 9.7 18 Sur 39 Sudoeste 0 -- -- 71
2019-04-24 08:00:00 8.3 10 Sur 23 Sudoeste 0 -- -- 73
2019-04-24 07:00:00 8.2 17 Sudoeste 30 Sudoeste 0 -- -- 72
2019-04-24 06:00:00 8.4 12 Sudoeste 21 Sudoeste 0 -- -- 74
2019-04-24 05:00:00 8.4 8 Sur 21 Oeste 0 -- -- 82
2019-04-24 04:00:00 9.2 12 Sudoeste 26 Sudoeste 0.2 -- -- 77
2019-04-24 03:00:00 9.2 9 Sur 23 Sudoeste 0 -- -- 77
2019-04-24 02:00:00 9.5 10 Sudoeste 16 Sudoeste 0 -- -- 74
2019-04-24 01:00:00 9.4 8 Sudoeste 22 Oeste 0 -- -- 81
2019-04-24 00:00:00 10.4 17 Sudoeste 24 Sudoeste 0 -- -- 65
2019-04-23 23:00:00 9.5 17 Sudoeste 29 Sudoeste 0 -- -- 74
2019-04-23 22:00:00 9.8 4 Sudeste 11 Sudoeste 0 -- -- 90
2019-04-23 21:00:00 10.4 3 Nordeste 19 Noroeste 0 -- -- 84
2019-04-23 20:00:00 11.2 10 Norte 21 Norte 0 -- -- 83
2019-04-23 19:00:00 14.1 6 Oeste 39 Sudoeste 0 -- -- 66
2019-04-23 18:00:00 15.4 25 Sudoeste 41 Sudoeste 0 -- -- 62
2019-04-23 17:00:00 15.2 10 Este 21 Sudeste 0 -- -- 58
2019-04-23 16:00:00 15 16 Sur 41 Sudoeste 0 -- -- 54
2019-04-23 15:00:00 14.3 10 Sur 54 Sur 0.4 -- -- 80
2019-04-23 14:00:00 17.6 12 Sur 30 Sudeste 0 -- -- 54
2019-04-23 13:00:00 18.1 13 Sudeste 31 Sudeste 0 -- -- 58
2019-04-23 12:00:00 17.3 20 Sudeste 31 Sudeste 0 -- -- 65
2019-04-23 11:00:00 16 21 Sudeste 37 Sudeste 0 -- -- 69
2019-04-23 10:00:00 14.6 16 Sudeste 23 Sudeste 0 -- -- 76
2019-04-23 09:00:00 11.3 4 Sudeste 12 Sudeste 0 -- -- 88
2019-04-23 08:00:00 10.5 4 Sudoeste 27 Sudeste 0 -- -- 90
2019-04-23 07:00:00 10.5 9 Sur 26 Sudeste 0 -- -- 89
2019-04-23 06:00:00 10.6 19 Sudeste 27 Sudeste 0 -- -- 89
2019-04-23 05:00:00 10.6 6 Sudeste 20 Sudeste 0 -- -- 86
2019-04-23 04:00:00 11.2 14 Sudeste 26 Sudeste 0 -- -- 83
2019-04-23 03:00:00 12.4 17 Sudeste 27 Sudeste 0 -- -- 77
2019-04-23 02:00:00 12.8 18 Sudeste 33 Sudeste 0 -- -- 76
2019-04-23 01:00:00 13 20 Sudeste 28 Sudeste 0 -- -- 74
2019-04-23 00:00:00 13.7 5 Sur 27 Sudeste 0 -- -- 70
2019-04-22 23:00:00 15.2 19 Sudeste 29 Sudeste 0 -- -- 62
2019-04-22 22:00:00 15.6 17 Sudeste 28 Sudeste 0 -- -- 60
2019-04-22 21:00:00 16.6 20 Sudeste 35 Sudeste 0 -- -- 55
2019-04-22 20:00:00 18 22 Sudeste 35 Sudeste 0 -- -- 49
2019-04-22 19:00:00 19.3 23 Sudeste 36 Sudeste 0 -- -- 45
2019-04-22 18:00:00 20.6 18 Sudeste 31 Sudeste 0 -- -- 43
2019-04-22 17:00:00 20.8 22 Sur 36 Sur 0 -- -- 44
2019-04-22 16:00:00 20.5 22 Sudeste 36 Sudeste 0 -- -- 44
2019-04-22 15:00:00 19.8 18 Sudeste 28 Sudeste 0 -- -- 46
2019-04-22 14:00:00 18.4 9 Sur 22 Sur 0 -- -- 46
2019-04-22 13:00:00 18.5 5 Sudoeste 13 Sudoeste 0 -- -- 50
2019-04-22 12:00:00 15.8 3 Sudoeste 13 Sur 0 -- -- 67
2019-04-22 11:00:00 14.5 5 Noroeste 15 Noroeste 0 -- -- 71
2019-04-22 10:00:00 11.2 0 Calma 4 Sur 0 -- -- 88
2019-04-22 09:00:00 8 0 Calma 4 Sudoeste 0 -- -- 96
2019-04-22 08:00:00 6.7 5 Sudeste 8 Sudeste 0 -- -- 94
2019-04-22 07:00:00 7.4 0 Calma 5 Norte 0 -- -- 91
2019-04-22 06:00:00 9 5 Noroeste 10 Noroeste 0 -- -- 88
2019-04-22 05:00:00 10.1 6 Noroeste 11 Noroeste 0 -- -- 87
2019-04-22 04:00:00 10.7 9 Noroeste 14 Noroeste 0 -- -- 87
2019-04-22 03:00:00 11.4 6 Oeste 14 Noroeste 0 -- -- 85
2019-04-22 02:00:00 11.7 5 Noroeste 10 Noroeste 0 -- -- 84
2019-04-22 01:00:00 11.9 4 Noroeste 11 Noroeste 0 -- -- 82
2019-04-22 00:00:00 12.3 6 Noroeste 11 Noroeste 0 -- -- 80
2019-04-21 23:00:00 12.6 7 Noroeste 14 Noroeste 0 -- -- 78
2019-04-21 22:00:00 12.9 6 Noroeste 10 Noroeste 0 -- -- 76
2019-04-21 21:00:00 13.6 4 Noroeste 10 Noroeste 0 -- -- 72
2019-04-21 20:00:00 14.3 7 Noroeste 14 Noroeste 0 -- -- 67
2019-04-21 19:00:00 14.6 7 Noroeste 13 Noroeste 0 -- -- 64
2019-04-21 18:00:00 14.5 8 Noroeste 16 Noroeste 0 -- -- 65
2019-04-21 17:00:00 14.8 9 Noroeste 13 Norte 0 -- -- 61
2019-04-21 16:00:00 15 2 Oeste 10 Noroeste 0 -- -- 57
2019-04-21 15:00:00 14.6 6 Norte 20 Noroeste 0 -- -- 62
2019-04-21 14:00:00 15.2 14 Noroeste 23 Noroeste 0 -- -- 66
2019-04-21 13:00:00 12.4 10 Noroeste 18 Noroeste 0 -- -- 77
2019-04-21 12:00:00 11.5 10 Noroeste 20 Noroeste 0 -- -- 79
2019-04-21 11:00:00 11 9 Noroeste 15 Noroeste 0 -- -- 84
2019-04-21 10:00:00 10.6 8 Noroeste 15 Noroeste 0 -- -- 89
2019-04-21 09:00:00 9.9 7 Noroeste 14 Noroeste 0 -- -- 94
2019-04-21 08:00:00 9.5 5 Noroeste 9 Noroeste 0 -- -- 95
2019-04-21 07:00:00 9.7 5 Sudeste 8 Sudeste 0 -- -- 92
2019-04-21 06:00:00 10 2 Sudeste 10 Sudeste 0.2 -- -- 89
2019-04-21 05:00:00 10.3 8 Sudeste 14 Sudeste 0 -- -- 86
2019-04-21 04:00:00 10.5 9 Sudeste 15 Sudeste 0 -- -- 82
2019-04-21 03:00:00 11 10 Sudeste 25 Sudeste 0 -- -- 80
2019-04-21 02:00:00 11.4 12 Sudeste 21 Sudeste 0 -- -- 77
2019-04-21 01:00:00 11.8 14 Sudeste 23 Sudeste 0 -- -- 75
2019-04-21 00:00:00 12.3 12 Sudeste 36 Sudeste 0 -- -- 73
2019-04-20 23:00:00 13.7 21 Sudeste 39 Sudeste 0 -- -- 62
2019-04-20 22:00:00 15.1 24 Sudeste 45 Sudeste 0 -- -- 54
2019-04-20 21:00:00 17.5 14 Sudeste 36 Sudeste 0 -- -- 42
2019-04-20 20:00:00 18.9 20 Sudeste 33 Sudeste 0 -- -- 37
2019-04-20 19:00:00 21.5 13 Sur 22 Sur 0 -- -- 36
2019-04-20 18:00:00 22.5 7 Sur 17 Sudoeste 0 -- -- 33
2019-04-20 17:00:00 22.5 5 Oeste 22 Sur 0 -- -- 33
2019-04-20 16:00:00 22.4 5 Oeste 19 Oeste 0 -- -- 35
2019-04-20 15:00:00 21.1 4 Nordeste 15 Sudeste 0 -- -- 39
2019-04-20 14:00:00 20.8 7 Este 18 Sudeste 0 -- -- 43
2019-04-20 13:00:00 19.3 3 Este 9 Sudoeste 0 -- -- 45
2019-04-20 12:00:00 17.8 4 Este 13 Norte 0 -- -- 51
2019-04-20 11:00:00 15.6 6 Norte 13 Norte 0 -- -- 62
2019-04-20 10:00:00 13.1 3 Noroeste 10 Noroeste 0 -- -- 79
2019-04-20 09:00:00 10.3 4 Noroeste 8 Noroeste 0 -- -- 96
2019-04-20 08:00:00 8.3 0 Calma 10 Noroeste 0 -- -- 95
2019-04-20 07:00:00 8.6 4 Noroeste 10 Norte 0 -- -- 96
2019-04-20 06:00:00 8.3 3 Nordeste 6 Noroeste 0 -- -- 94
2019-04-20 05:00:00 8.8 0 Calma 9 Noroeste 0 -- -- 96
2019-04-20 04:00:00 8.6 0 Calma 4 Norte 0 -- -- 94
2019-04-20 03:00:00 9.1 3 Oeste 6 Sur 0 -- -- 93
2019-04-20 02:00:00 10 4 Oeste 5 Oeste 0 -- -- 93
2019-04-20 01:00:00 10.8 2 Nordeste 4 Norte 0 -- -- 90
2019-04-20 00:00:00 11.4 0 Calma 7 Norte 0 -- -- 87
2019-04-19 23:00:00 12.9 3 Sur 10 Sudeste 0 -- -- 84
2019-04-19 22:00:00 14 6 Sudeste 10 Sudeste 0 -- -- 79
2019-04-19 21:00:00 16.1 4 Norte 6 Norte 0 -- -- 71
2019-04-19 20:00:00 18.6 0 Calma 4 Oeste 0 -- -- 59
2019-04-19 19:00:00 19 0 Calma 6 Norte 0 -- -- 55
2019-04-19 18:00:00 18.9 3 Norte 7 Sur 0 -- -- 57
2019-04-19 17:00:00 18.5 6 Sur 13 Sur 0 -- -- 62
2019-04-19 16:00:00 18.4 8 Sudoeste 15 Sur 0 -- -- 63
2019-04-19 15:00:00 18 7 Sudoeste 14 Sur 0 -- -- 67
2019-04-19 14:00:00 18.5 8 Sudoeste 17 Sudoeste 0 -- -- 61
2019-04-19 13:00:00 16.3 7 Oeste 13 Oeste 0 -- -- 65
2019-04-19 12:00:00 13.7 8 Oeste 12 Oeste 0 -- -- 86
2019-04-19 11:00:00 12.4 4 Noroeste 6 Noroeste 0 -- -- 89
2019-04-19 10:00:00 11.2 0 Calma 5 Nordeste 0 -- -- 96
2019-04-19 09:00:00 10.6 2 Norte 5 Nordeste 0.2 -- -- 96
2019-04-19 08:00:00 10.5 3 Norte 15 Sur 0.4 -- -- 96
2019-04-19 07:00:00 10.6 10 Sur 21 Sudoeste 1.8 -- -- 96
2019-04-19 06:00:00 10.5 9 Sur 15 Sur 1.8 -- -- 95
2019-04-19 05:00:00 10.7 7 Sudeste 14 Este 1.2 -- -- 94
2019-04-19 04:00:00 10.9 3 Este 6 Este 2 -- -- 94
2019-04-19 03:00:00 11.1 4 Sur 17 Sudoeste 1.4 -- -- 93
2019-04-19 02:00:00 11.4 10 Sur 24 Sur 1.8 -- -- 91
2019-04-19 01:00:00 13.5 10 Sur 28 Sudeste 0.4 -- -- 79
2019-04-19 00:00:00 15.2 13 Sudeste 24 Sudeste 0 -- -- 59
2019-04-18 23:00:00 15.6 12 Sudeste 22 Sudeste 0 -- -- 57
2019-04-18 22:00:00 16 11 Sudeste 20 Este 0 -- -- 55
2019-04-18 21:00:00 16.5 15 Este 25 Este 0 -- -- 51
2019-04-18 20:00:00 16.9 13 Este 27 Este 0 -- -- 50
2019-04-18 19:00:00 17.3 17 Este 32 Sudeste 0 -- -- 49
2019-04-18 18:00:00 17.7 22 Sudeste 33 Sudeste 0 -- -- 48
2019-04-18 17:00:00 18.5 24 Sudeste 45 Sudeste 0 -- -- 45
2019-04-18 16:00:00 18.1 25 Sudeste 40 Sudeste 0 -- -- 46
2019-04-18 15:00:00 19 23 Sudeste 35 Sudeste 0 -- -- 48
2019-04-18 14:00:00 18.7 22 Sudeste 39 Sudeste 0 -- -- 53
2019-04-18 13:00:00 16.5 11 Sudeste 20 Sur 0 -- -- 64
2019-04-18 12:00:00 14.3 10 Sudeste 17 Sur 0 -- -- 79
2019-04-18 11:00:00 11.8 11 Sur 24 Sudeste 0 -- -- 87
2019-04-18 10:00:00 12.4 15 Sudeste 22 Sudeste 0 -- -- 84
2019-04-18 09:00:00 12.1 10 Sudeste 18 Sudeste 0 -- -- 84
2019-04-18 08:00:00 11.6 6 Sudeste 13 Este 0 -- -- 86
2019-04-18 07:00:00 11.8 10 Este 22 Sudeste 0 -- -- 84
2019-04-18 06:00:00 12.2 15 Sur 31 Sudeste 0 -- -- 83
2019-04-18 05:00:00 12 19 Sudeste 32 Sudeste 0 -- -- 83
2019-04-18 04:00:00 11.6 19 Sudeste 30 Sudeste 0 -- -- 81
2019-04-18 03:00:00 11.9 16 Sudeste 32 Sudeste 0 -- -- 76
2019-04-18 02:00:00 12.8 16 Sudeste 35 Sudeste 0 -- -- 73
2019-04-18 01:00:00 13.6 22 Sudeste 43 Sudeste 0 -- -- 72
2019-04-18 00:00:00 14.6 16 Sudeste 36 Sudeste 0 -- -- 71
2019-04-17 23:00:00 15.4 32 Sudeste 41 Sudeste 0 -- -- 66
2019-04-17 22:00:00 16.4 21 Sudeste 37 Sudeste 0 -- -- 61
2019-04-17 21:00:00 17.7 20 Sudeste 36 Sudeste 0 -- -- 57
2019-04-17 20:00:00 19.3 21 Sudeste 41 Sudeste 0 -- -- 52
2019-04-17 19:00:00 20.2 30 Sudeste 48 Sudeste 0 -- -- 50
2019-04-17 18:00:00 20.5 21 Sudeste 44 Sudeste 0 -- -- 52
2019-04-17 17:00:00 21.5 29 Sudeste 45 Sudeste 0 -- -- 49
2019-04-17 16:00:00 22.1 27 Sudeste 44 Sudeste 0 -- -- 47
2019-04-17 15:00:00 19.9 27 Sudeste 45 Sudeste 0 -- -- 53
2019-04-17 14:00:00 18.8 29 Sudeste 42 Sudeste 0 -- -- 59
2019-04-17 13:00:00 16.1 26 Sudeste 42 Sudeste 0 -- -- 64
2019-04-17 12:00:00 15.4 29 Sudeste 43 Sudeste 0 -- -- 65
2019-04-17 11:00:00 13.8 27 Sudeste 41 Sudeste 0 -- -- 73
2019-04-17 10:00:00 12.2 24 Sudeste 37 Sudeste 0 -- -- 82
2019-04-17 09:00:00 10.7 17 Sudeste 31 Sudeste 0 -- -- 87
2019-04-17 08:00:00 9.1 10 Sudeste 21 Sudeste 0 -- -- 90
2019-04-17 07:00:00 7.9 10 Sudeste 16 Sudeste 0 -- -- 90
2019-04-17 06:00:00 8.2 6 Este 11 Sudeste 0 -- -- 84
2019-04-17 05:00:00 9 8 Sudeste 16 Sudeste 0 -- -- 80
2019-04-17 04:00:00 9.4 5 Este 15 Este 0 -- -- 83
2019-04-17 03:00:00 10.4 9 Este 18 Sudeste 0 -- -- 78
2019-04-17 02:00:00 11.5 15 Sudeste 28 Sudeste 0 -- -- 73
2019-04-17 01:00:00 12.6 18 Sudeste 30 Sudeste 0 -- -- 68
2019-04-17 00:00:00 13.3 21 Sudeste 31 Sudeste 0 -- -- 71
2019-04-16 23:00:00 11.3 2 Nordeste 7 Sudeste 0 -- -- 80
2019-04-16 22:00:00 13.4 6 Sudeste 7 Sudeste 0 -- -- 71
2019-04-16 21:00:00 16.4 4 Sudeste 14 Sudeste 0 -- -- 56
2019-04-16 20:00:00 18.9 9 Sudeste 24 Sudeste 0 -- -- 49
2019-04-16 19:00:00 20 17 Sudeste 24 Sudeste 0 -- -- 42
2019-04-16 18:00:00 20.7 15 Sudeste 26 Sudeste 0 -- -- 40
2019-04-16 17:00:00 20.8 11 Sudeste 22 Sudeste 0 -- -- 48
2019-04-16 16:00:00 20.3 6 Sudeste 21 Sudeste 0 -- -- 48
2019-04-16 15:00:00 18.9 6 Este 14 Nordeste 0 -- -- 48
2019-04-16 14:00:00 17.6 3 Norte 13 Norte 0 -- -- 52
2019-04-16 13:00:00 16.6 3 Sudeste 13 Norte 0 -- -- 58
2019-04-16 12:00:00 15.4 7 Norte 17 Norte 0 -- -- 65
2019-04-16 11:00:00 14.1 8 Noroeste 16 Noroeste 0 -- -- 73
2019-04-16 10:00:00 13 8 Noroeste 17 Noroeste 0 -- -- 84
2019-04-16 09:00:00 11.4 9 Noroeste 15 Norte 0 -- -- 96
2019-04-16 08:00:00 9.3 0 Calma 4 Noroeste 0 -- -- 94
2019-04-16 07:00:00 10.4 0 Calma 6 Noroeste 0 -- -- 94
2019-04-16 06:00:00 10.6 5 Oeste 8 Noroeste 0 -- -- 95
2019-04-16 05:00:00 10.7 3 Noroeste 6 Oeste 0 -- -- 94
2019-04-16 04:00:00 10.8 3 Oeste 9 Noroeste 0 -- -- 94
2019-04-16 03:00:00 10.8 4 Noroeste 11 Noroeste 0 -- -- 95
2019-04-16 02:00:00 10.9 5 Noroeste 15 Este 0.2 -- -- 95
2019-04-16 01:00:00 11.2 7 Norte 21 Norte 0.2 -- -- 94
2019-04-16 00:00:00 11.2 8 Norte 27 Norte 1.6 -- -- 93
2019-04-15 23:00:00 12.9 13 Norte 29 Norte 0 -- -- 89
2019-04-15 22:00:00 13.8 8 Sudeste 15 Este 0 -- -- 90
2019-04-15 21:00:00 15 6 Oeste 31 Oeste 6.4 -- -- 89
2019-04-15 20:00:00 18.4 13 Sur 42 Sudeste 0 -- -- 60
2019-04-15 19:00:00 19.6 32 Sudeste 50 Sudeste 0 -- -- 58
2019-04-15 18:00:00 21.8 32 Sudeste 52 Sudeste 0 -- -- 49
2019-04-15 17:00:00 22.6 35 Sudeste 54 Sudeste 0 -- -- 51
2019-04-15 16:00:00 23.2 37 Sudeste 57 Sudeste 0 -- -- 45
2019-04-15 15:00:00 20.9 36 Sudeste 50 Sudeste 0 -- -- 52
2019-04-15 14:00:00 19.9 28 Sudeste 43 Sudeste 0 -- -- 57
2019-04-15 13:00:00 20.1 30 Sudeste 42 Sudeste 0 -- -- 60
2019-04-15 12:00:00 19.1 30 Sudeste 44 Sudeste 0 -- -- 62
2019-04-15 11:00:00 16.2 22 Sudeste 32 Sudeste 0 -- -- 73
2019-04-15 10:00:00 14.3 15 Sudeste 22 Sudeste 0 -- -- 79
2019-04-15 09:00:00 11.4 5 Sur 10 Sudeste 0 -- -- 96
2019-04-15 08:00:00 8.9 7 Sur 14 Sudeste 0 -- -- 98
2019-04-15 07:00:00 7.3 2 Sudeste 8 Nordeste 0 -- -- 96
2019-04-15 06:00:00 6.6 2 Nordeste 4 Sudoeste 0 -- -- 93
2019-04-15 05:00:00 7.4 0 Calma 5 Sudoeste 0 -- -- 92
2019-04-15 04:00:00 8.2 4 Sudoeste 6 Sudeste 0 -- -- 91
2019-04-15 03:00:00 8.9 2 Sudoeste 6 Sudoeste 0 -- -- 89
2019-04-15 02:00:00 10.1 0 Calma 8 Sudoeste 0 -- -- 87
2019-04-15 01:00:00 11.4 3 Sur 8 Norte 0 -- -- 84
2019-04-15 00:00:00 12.3 4 Norte 13 Oeste 0 -- -- 82
2019-04-14 23:00:00 13.8 5 Oeste 11 Oeste 0 -- -- 77
2019-04-14 22:00:00 15.4 5 Noroeste 12 Oeste 0 -- -- 71
2019-04-14 21:00:00 17.6 6 Norte 23 Nordeste 0 -- -- 63
2019-04-14 20:00:00 19.5 14 Nordeste 31 Norte 0 -- -- 56
2019-04-14 19:00:00 21.9 16 Nordeste 36 Nordeste 0 -- -- 48
2019-04-14 18:00:00 23.7 19 Norte 35 Noroeste 0 -- -- 41
2019-04-14 17:00:00 25.3 19 Noroeste 34 Noroeste 0 -- -- 36
2019-04-14 16:00:00 24.8 18 Noroeste 33 Norte 0 -- -- 33
2019-04-14 15:00:00 24.7 18 Noroeste 35 Norte 0 -- -- 35
2019-04-14 14:00:00 23.4 19 Noroeste 31 Noroeste 0 -- -- 35
2019-04-14 13:00:00 21.9 11 Noroeste 26 Noroeste 0 -- -- 38
2019-04-14 12:00:00 19.9 11 Norte 21 Norte 0 -- -- 38
2019-04-14 11:00:00 17.3 11 Noroeste 17 Noroeste 0 -- -- 50
2019-04-14 10:00:00 13.4 5 Norte 14 Noroeste 0 -- -- 59
2019-04-14 09:00:00 9.1 0 Calma 5 Oeste 0 -- -- 76
2019-04-14 08:00:00 6 4 Oeste 6 Oeste 0 -- -- 86
2019-04-14 07:00:00 5.5 5 Oeste 6 Oeste 0 -- -- 88
2019-04-14 06:00:00 4.9 3 Sur 5 Sudoeste 0 -- -- 86
2019-04-14 05:00:00 4.2 0 Calma 3 Sudoeste 0 -- -- 85
2019-04-14 04:00:00 4.4 0 Calma 6 Noroeste 0 -- -- 83
2019-04-14 03:00:00 4.9 3 Sudoeste 6 Sur 0 -- -- 79
2019-04-14 02:00:00 5.8 0 Calma 6 Sudeste 0 -- -- 70
2019-04-14 01:00:00 6.9 3 Sur 10 Sur 0 -- -- 61
2019-04-14 00:00:00 8.3 6 Sur 10 Oeste 0 -- -- 53
2019-04-13 23:00:00 9.3 6 Oeste 10 Oeste 0 -- -- 52
2019-04-13 22:00:00 11 9 Oeste 11 Oeste 0 -- -- 50
2019-04-13 21:00:00 17.1 6 Norte 14 Noroeste 0 -- -- 22
2019-04-13 20:00:00 21.1 8 Noroeste 18 Noroeste 0 -- -- 15
2019-04-13 19:00:00 23.1 5 Noroeste 19 Oeste 0 -- -- 10
2019-04-13 18:00:00 23.4 4 Norte 17 Noroeste 0 -- -- 7
2019-04-13 17:00:00 23.4 9 Noroeste 23 Noroeste 0 -- -- 7
2019-04-13 16:00:00 23 9 Noroeste 20 Noroeste 0 -- -- 9
2019-04-13 15:00:00 22.4 15 Noroeste 25 Noroeste 0 -- -- 13
2019-04-13 14:00:00 21.1 13 Noroeste 23 Noroeste 0 -- -- 16
2019-04-13 13:00:00 18.8 12 Norte 24 Noroeste 0 -- -- 14
2019-04-13 12:00:00 16.3 10 Noroeste 17 Noroeste 0 -- -- 28
2019-04-13 11:00:00 11.6 5 Noroeste 14 Noroeste 0 -- -- 43
2019-04-13 10:00:00 8.5 7 Noroeste 18 Noroeste 0 -- -- 55
2019-04-13 09:00:00 5.3 5 Noroeste 15 Noroeste 0 -- -- 74
2019-04-13 08:00:00 2.6 6 Oeste 15 Noroeste 0 -- -- 84
2019-04-13 07:00:00 3.5 11 Noroeste 16 Noroeste 0 -- -- 84
2019-04-13 06:00:00 4.1 6 Noroeste 22 Noroeste 0 -- -- 83
2019-04-13 05:00:00 5.5 14 Noroeste 23 Norte 0 -- -- 80
2019-04-13 04:00:00 6.4 14 Noroeste 25 Noroeste 0 -- -- 78
2019-04-13 03:00:00 6.8 14 Noroeste 29 Noroeste 0 -- -- 76
2019-04-13 02:00:00 6.9 2 Sur 29 Noroeste 0 -- -- 70
2019-04-13 01:00:00 8 15 Noroeste 28 Noroeste 0 -- -- 69
2019-04-13 00:00:00 8.9 17 Noroeste 24 Noroeste 0 -- -- 64
2019-04-12 23:00:00 8.9 16 Noroeste 29 Norte 0 -- -- 61
2019-04-12 22:00:00 11.3 19 Norte 33 Norte 0 -- -- 53
2019-04-12 21:00:00 12.1 13 Norte 29 Norte 0 -- -- 52
2019-04-12 20:00:00 14.2 15 Norte 40 Norte 0 -- -- 45
2019-04-12 19:00:00 15.9 25 Norte 39 Norte 0 -- -- 39
2019-04-12 18:00:00 17 22 Norte 41 Norte 0 -- -- 38
2019-04-12 17:00:00 17.6 26 Norte 43 Norte 0 -- -- 39
2019-04-12 16:00:00 17.8 23 Noroeste 42 Noroeste 0 -- -- 37
2019-04-12 15:00:00 16.8 27 Norte 46 Norte 0 -- -- 40
2019-04-12 14:00:00 15.9 24 Norte 40 Norte 0 -- -- 42
2019-04-12 13:00:00 15 22 Noroeste 43 Noroeste 0 -- -- 47
2019-04-12 12:00:00 14.3 29 Noroeste 43 Noroeste 0 -- -- 53
2019-04-12 11:00:00 12.2 27 Noroeste 44 Noroeste 0 -- -- 60
2019-04-12 10:00:00 11.4 24 Noroeste 37 Noroeste 0 -- -- 66
2019-04-12 09:00:00 8.7 16 Noroeste 33 Noroeste 0 -- -- 76
2019-04-12 08:00:00 7.2 15 Noroeste 32 Noroeste 0 -- -- 79
2019-04-12 07:00:00 6.8 15 Noroeste 25 Noroeste 0 -- -- 82
2019-04-12 06:00:00 6.7 14 Noroeste 22 Noroeste 0 -- -- 83
2019-04-12 05:00:00 6.9 14 Noroeste 27 Noroeste 0 -- -- 82
2019-04-12 04:00:00 7.3 17 Noroeste 30 Noroeste 0 -- -- 81
2019-04-12 03:00:00 7.4 14 Noroeste 25 Noroeste 0 -- -- 82
2019-04-12 02:00:00 7.4 13 Noroeste 21 Noroeste 0 -- -- 81
2019-04-12 01:00:00 7.5 12 Noroeste 25 Noroeste 0 -- -- 81
2019-04-12 00:00:00 7.6 12 Noroeste 18 Noroeste 0 -- -- 81
2019-04-11 23:00:00 8.3 13 Noroeste 23 Noroeste 0 -- -- 79
2019-04-11 22:00:00 8.9 15 Noroeste 24 Noroeste 0 -- -- 77
2019-04-11 21:00:00 10.1 14 Noroeste 40 Noroeste 0 -- -- 70
2019-04-11 20:00:00 11.5 23 Noroeste 37 Noroeste 0 -- -- 66
2019-04-11 19:00:00 12.4 21 Noroeste 42 Noroeste 0 -- -- 64
2019-04-11 18:00:00 13.7 29 Noroeste 43 Noroeste 0 -- -- 58
2019-04-11 17:00:00 15.1 26 Noroeste 45 Noroeste 0 -- -- 57
2019-04-11 16:00:00 13.6 27 Noroeste 45 Noroeste 0 -- -- 58
2019-04-11 15:00:00 14.7 30 Noroeste 46 Noroeste 0 -- -- 56
2019-04-11 14:00:00 13.3 27 Noroeste 47 Noroeste 0 -- -- 57
2019-04-11 13:00:00 13.1 29 Noroeste 44 Noroeste 0 -- -- 58
2019-04-11 12:00:00 12.3 23 Noroeste 41 Noroeste 0 -- -- 60
2019-04-11 11:00:00 12.8 26 Noroeste 45 Noroeste 0 -- -- 57
2019-04-11 10:00:00 11.5 25 Noroeste 43 Noroeste 0 -- -- 63
2019-04-11 09:00:00 9.2 15 Noroeste 25 Noroeste 0 -- -- 73
2019-04-11 08:00:00 7.1 13 Noroeste 22 Noroeste 0 -- -- 82
2019-04-11 07:00:00 7.3 12 Noroeste 19 Noroeste 0 -- -- 82
2019-04-11 06:00:00 8.2 10 Noroeste 24 Noroeste 0 -- -- 79
2019-04-11 05:00:00 7.9 14 Noroeste 23 Noroeste 0 -- -- 81
2019-04-11 04:00:00 8.4 16 Noroeste 32 Noroeste 0 -- -- 78
2019-04-11 03:00:00 8.6 19 Noroeste 28 Noroeste 0 -- -- 81
2019-04-11 02:00:00 8.5 15 Noroeste 24 Noroeste 0 -- -- 82
2019-04-11 01:00:00 7.7 13 Noroeste 20 Noroeste 0 -- -- 85
2019-04-11 00:00:00 7.1 6 Norte 16 Noroeste 0 -- -- 85
2019-04-10 23:00:00 8.3 10 Noroeste 25 Noroeste 0 -- -- 77
2019-04-10 22:00:00 9.2 19 Noroeste 28 Noroeste 0 -- -- 72
2019-04-10 21:00:00 10.6 20 Noroeste 43 Norte 0 -- -- 65
2019-04-10 20:00:00 13.1 23 Norte 42 Noroeste 0 -- -- 55
2019-04-10 19:00:00 15.2 21 Norte 42 Noroeste 0 -- -- 51
2019-04-10 18:00:00 15.1 19 Norte 38 Norte 0 -- -- 49
2019-04-10 17:00:00 16.1 26 Norte 40 Noroeste 0 -- -- 45
2019-04-10 16:00:00 15.5 25 Noroeste 46 Noroeste 0 -- -- 53
2019-04-10 15:00:00 15.2 27 Noroeste 40 Noroeste 0 -- -- 58
2019-04-10 14:00:00 13.6 26 Noroeste 43 Noroeste 0 -- -- 68
2019-04-10 13:00:00 13.9 24 Noroeste 42 Noroeste 0 -- -- 67
2019-04-10 12:00:00 12 21 Noroeste 35 Noroeste 0 -- -- 71
2019-04-10 11:00:00 10.1 21 Noroeste 31 Noroeste 0 -- -- 79
2019-04-10 10:00:00 7.8 12 Noroeste 20 Noroeste 0 -- -- 94
2019-04-10 09:00:00 6 12 Noroeste 20 Noroeste 0 -- -- 96
2019-04-10 08:00:00 5 10 Noroeste 17 Noroeste 0 -- -- 98
2019-04-10 07:00:00 4.3 5 Norte 11 Noroeste 0 -- -- 98
2019-04-10 06:00:00 2.8 5 Oeste 8 Sudoeste 0 -- -- 96
2019-04-10 05:00:00 4.3 3 Noroeste 8 Norte 0 -- -- 95
2019-04-10 04:00:00 5.5 4 Nordeste 14 Oeste 0 -- -- 95
2019-04-10 03:00:00 6.3 9 Noroeste 13 Noroeste 0 -- -- 95
2019-04-10 02:00:00 6.5 6 Noroeste 17 Noroeste 0 -- -- 91
2019-04-10 01:00:00 7.6 12 Noroeste 21 Noroeste 0 -- -- 91
2019-04-10 00:00:00 7.8 14 Noroeste 28 Noroeste 0.2 -- -- 92
2019-04-09 23:00:00 7.9 16 Noroeste 30 Oeste 1.6 -- -- 93
2019-04-09 22:00:00 8.8 8 Oeste 21 Noroeste 1.4 -- -- 95
2019-04-09 21:00:00 9.6 17 Noroeste 26 Noroeste 0 -- -- 90
2019-04-09 20:00:00 9.4 9 Sur 24 Sudoeste 0.6 -- -- 90
2019-04-09 19:00:00 9.8 16 Sudoeste 32 Oeste 1.6 -- -- 87
2019-04-09 18:00:00 12.7 8 Sudoeste 12 Sudoeste 0 -- -- 73
2019-04-09 17:00:00 12.5 9 Sudeste 25 Este 0 -- -- 75
2019-04-09 16:00:00 11.9 13 Sudeste 22 Oeste 3.2 -- -- 76
2019-04-09 15:00:00 15.8 6 Este 24 Norte 0 -- -- 51
2019-04-09 14:00:00 16.4 6 Este 17 Este 0 -- -- 46
2019-04-09 13:00:00 15.5 8 Este 17 Este 0 -- -- 52
2019-04-09 12:00:00 13.8 6 Norte 15 Nordeste 0 -- -- 56
2019-04-09 11:00:00 11.6 9 Norte 14 Norte 0 -- -- 71
2019-04-09 10:00:00 8.3 4 Norte 10 Norte 0 -- -- 96
2019-04-09 09:00:00 4.3 0 Calma 5 Sudeste 0 -- -- 100
2019-04-09 08:00:00 1.2 0 Calma 5 Sudoeste 0 -- -- 97
2019-04-09 07:00:00 2 2 Oeste 6 Sudoeste 0 -- -- 96
2019-04-09 06:00:00 3.3 3 Sudeste 8 Oeste 0 -- -- 96
2019-04-09 05:00:00 4.6 7 Oeste 9 Oeste 0 -- -- 96
2019-04-09 04:00:00 5.7 0 Calma 9 Noroeste 0 -- -- 96
2019-04-09 03:00:00 4.6 5 Oeste 7 Oeste 0 -- -- 93
2019-04-09 02:00:00 5.5 0 Calma 6 Nordeste 0 -- -- 90
2019-04-09 01:00:00 7.5 3 Sur 8 Sudoeste 0 -- -- 85
2019-04-09 00:00:00 9 6 Noroeste 12 Oeste 0 -- -- 86
2019-04-08 23:00:00 9.6 7 Oeste 9 Oeste 0 -- -- 84
2019-04-08 22:00:00 10.3 4 Sudoeste 13 Norte 0 -- -- 83
2019-04-08 21:00:00 11.8 10 Norte 16 Noroeste 0 -- -- 77
2019-04-08 20:00:00 13.2 7 Norte 17 Norte 0 -- -- 69
2019-04-08 19:00:00 13.8 10 Norte 23 Norte 0.8 -- -- 68
2019-04-08 18:00:00 14.7 13 Norte 44 Noroeste 0 -- -- 66
2019-04-08 17:00:00 16.7 17 Noroeste 27 Noroeste 0 -- -- 57
2019-04-08 16:00:00 16.7 12 Norte 23 Norte 0 -- -- 57
2019-04-08 15:00:00 16.9 9 Nordeste 18 Norte 0 -- -- 59
2019-04-08 14:00:00 14.8 6 Nordeste 15 Norte 0 -- -- 67
2019-04-08 13:00:00 14.8 5 Norte 15 Este 0 -- -- 69
2019-04-08 12:00:00 13.4 6 Este 16 Sudeste 0 -- -- 71
2019-04-08 11:00:00 12.1 6 Sudeste 13 Este 0 -- -- 81
2019-04-08 10:00:00 10.1 7 Sudeste 11 Sudeste 0 -- -- 89
2019-04-08 09:00:00 9.2 4 Este 8 Este 0 -- -- 93
2019-04-08 08:00:00 8.3 2 Nordeste 11 Sudeste 0 -- -- 92
2019-04-08 07:00:00 8.2 6 Sudeste 18 Sudeste 0 -- -- 88
2019-04-08 06:00:00 8.7 8 Este 13 Este 0 -- -- 88
2019-04-08 05:00:00 9.4 8 Sudeste 26 Sur 0 -- -- 81
2019-04-08 04:00:00 9.3 14 Sur 30 Sur 0.2 -- -- 80
2019-04-08 03:00:00 8.7 23 Sur 33 Sudoeste 0.4 -- -- 86
2019-04-08 02:00:00 9.1 16 Sudoeste 53 Sudoeste 0 -- -- 82
2019-04-08 01:00:00 11.5 26 Sudoeste 41 Sudoeste 0 -- -- 57
2019-04-08 00:00:00 10.4 16 Sudoeste 21 Sudoeste 0 -- -- 62
2019-04-07 23:00:00 10 4 Sudoeste 8 Sur 0 -- -- 69
2019-04-07 22:00:00 10.8 4 Oeste 10 Este 0 -- -- 63
2019-04-07 21:00:00 12.1 6 Sudeste 8 Sudeste 0 -- -- 58
2019-04-07 20:00:00 13.3 7 Este 12 Este 0 -- -- 51
2019-04-07 19:00:00 15.6 4 Norte 13 Norte 0 -- -- 35
2019-04-07 18:00:00 16.6 10 Noroeste 24 Noroeste 0 -- -- 38
2019-04-07 17:00:00 15 13 Noroeste 27 Noroeste 0 -- -- 39
2019-04-07 16:00:00 15.7 18 Norte 32 Noroeste 0 -- -- 40
2019-04-07 15:00:00 14.8 17 Noroeste 48 Noroeste 0 -- -- 42
2019-04-07 14:00:00 15.2 22 Noroeste 41 Noroeste 0 -- -- 46
2019-04-07 13:00:00 13.8 22 Noroeste 37 Noroeste 0 -- -- 53
2019-04-07 12:00:00 12.4 23 Noroeste 36 Noroeste 0 -- -- 53
2019-04-07 11:00:00 9.6 12 Noroeste 23 Noroeste 0 -- -- 71
2019-04-07 10:00:00 8 12 Noroeste 21 Noroeste 0 -- -- 82
2019-04-07 09:00:00 5.7 0 Calma 7 Noroeste 0 -- -- 93
2019-04-07 08:00:00 4.7 2 Oeste 6 Oeste 0 -- -- 91
2019-04-07 07:00:00 5.5 4 Oeste 8 Oeste 0 -- -- 91
2019-04-07 06:00:00 6.1 3 Noroeste 13 Norte 0 -- -- 89
2019-04-07 05:00:00 6.4 7 Norte 19 Noroeste 0 -- -- 92
2019-04-07 04:00:00 6.6 5 Noroeste 10 Noroeste 0 -- -- 94
2019-04-07 03:00:00 6.5 3 Noroeste 6 Norte 0 -- -- 94
2019-04-07 02:00:00 6.8 3 Noroeste 11 Noroeste 0.6 -- -- 92
2019-04-07 01:00:00 7.1 5 Norte 10 Norte 0 -- -- 87
2019-04-07 00:00:00 7.4 8 Este 9 Este 0 -- -- 80
2019-04-06 23:00:00 8.5 6 Este 13 Noroeste 0 -- -- 75
2019-04-06 22:00:00 9.3 8 Noroeste 28 Noroeste 0 -- -- 66
2019-04-06 21:00:00 9.6 9 Sur 13 Sur 0 -- -- 67
2019-04-06 20:00:00 10.9 0 Calma 15 Norte 0 -- -- 66
2019-04-06 19:00:00 11.5 16 Sudoeste 32 Sudoeste 0 -- -- 65
2019-04-06 18:00:00 12.7 19 Sudoeste 35 Sudoeste 0 -- -- 58
2019-04-06 17:00:00 12.1 26 Sudoeste 48 Sudoeste 0 -- -- 60
2019-04-06 16:00:00 13.8 24 Sudoeste 46 Sudoeste 0 -- -- 49
2019-04-06 15:00:00 14.2 28 Sudoeste 48 Sur 0 -- -- 46
2019-04-06 14:00:00 13.1 35 Sudoeste 52 Sudoeste 0 -- -- 46
2019-04-06 13:00:00 13.5 35 Sudoeste 53 Sudoeste 0 -- -- 59
2019-04-06 12:00:00 11.9 9 Este 19 Este 0 -- -- 63
2019-04-06 11:00:00 9.2 9 Nordeste 14 Nordeste 0 -- -- 79
2019-04-06 10:00:00 6.4 3 Este 6 Sur 0 -- -- 98
2019-04-06 09:00:00 1.1 3 Sur 5 Sudoeste 0 -- -- 99
2019-04-06 08:00:00 0.9 5 Sudoeste 10 Sur 0 -- -- 98
2019-04-06 07:00:00 0.9 2 Sudoeste 6 Sudoeste 0 -- -- 97
2019-04-06 06:00:00 2.2 3 Oeste 5 Sur 0 -- -- 97
2019-04-06 05:00:00 3 6 Sur 9 Sur 0 -- -- 97
2019-04-06 04:00:00 3.9 2 Sur 6 Noroeste 0 -- -- 98
2019-04-06 03:00:00 3.9 2 Noroeste 4 Norte 0 -- -- 97
2019-04-06 02:00:00 4.7 0 Calma 5 Sudoeste 0 -- -- 96
2019-04-06 01:00:00 5.2 5 Sudoeste 7 Sudoeste 0 -- -- 96
2019-04-06 00:00:00 5.6 4 Sudoeste 7 Noroeste 0 -- -- 95
2019-04-05 23:00:00 5.8 6 Oeste 10 Este 0 -- -- 95
2019-04-05 22:00:00 6 5 Este 15 Norte 0 -- -- 95
2019-04-05 21:00:00 5.9 11 Norte 22 Norte 2.4 -- -- 94
2019-04-05 20:00:00 6.5 15 Noroeste 32 Sudeste 1.2 -- -- 90
2019-04-05 19:00:00 10.4 22 Sudeste 39 Sudeste 0 -- -- 71
2019-04-05 18:00:00 11.7 23 Sudeste 35 Sudeste 0 -- -- 66
2019-04-05 17:00:00 12.9 13 Sudoeste 29 Sur 0 -- -- 56
2019-04-05 16:00:00 13.3 22 Sudoeste 31 Sudoeste 0 -- -- 54
2019-04-05 15:00:00 13 11 Sudeste 32 Sudeste 0 -- -- 60
2019-04-05 14:00:00 12.1 21 Sudeste 34 Sudeste 0 -- -- 64
2019-04-05 13:00:00 11.7 18 Este 28 Este 0 -- -- 65
2019-04-05 12:00:00 10.3 17 Este 28 Sudeste 0 -- -- 71
2019-04-05 11:00:00 10 19 Sudeste 33 Sudeste 0 -- -- 72
2019-04-05 10:00:00 9.1 22 Sudeste 32 Sudeste 0 -- -- 72
2019-04-05 09:00:00 7.8 19 Sudeste 30 Sudeste 0.2 -- -- 74
2019-04-05 08:00:00 8.1 19 Sudeste 32 Sudeste 0 -- -- 64
2019-04-05 07:00:00 8 15 Sudeste 27 Sudeste 0 -- -- 64
2019-04-05 06:00:00 8 16 Sudeste 27 Este 0 -- -- 63
2019-04-05 05:00:00 8.4 12 Sudeste 41 Sudeste 0 -- -- 58
2019-04-05 04:00:00 9.1 27 Sudeste 39 Sudeste 0 -- -- 51
2019-04-05 03:00:00 9.1 16 Sudeste 27 Sudeste 0 -- -- 47
2019-04-05 02:00:00 9.3 10 Sur 19 Sudeste 0 -- -- 50
2019-04-05 01:00:00 9.7 15 Sudeste 30 Sudeste 0 -- -- 49
2019-04-05 00:00:00 10.7 15 Sudeste 32 Sudeste 0 -- -- 47
2019-04-04 23:00:00 11 11 Sudeste 37 Sudeste 0 -- -- 44
2019-04-04 22:00:00 11.5 19 Sudeste 31 Sudeste 0 -- -- 44
2019-04-04 21:00:00 11.9 15 Sudeste 27 Sudeste 0 -- -- 41
2019-04-04 20:00:00 13 19 Sudeste 31 Sudeste 0 -- -- 40
2019-04-04 19:00:00 14.6 24 Sudeste 36 Sudeste 0 -- -- 37
2019-04-04 18:00:00 14.9 27 Sudeste 40 Sudeste 0 -- -- 37
2019-04-04 17:00:00 15.4 17 Sudeste 31 Este 0 -- -- 36
2019-04-04 16:00:00 14.1 6 Sudeste 21 Sudeste 0 -- -- 36
2019-04-04 15:00:00 13.3 5 Noroeste 11 Nordeste 0 -- -- 39
2019-04-04 14:00:00 11.8 7 Este 14 Este 0 -- -- 40
2019-04-04 13:00:00 10.3 6 Nordeste 13 Nordeste 0 -- -- 46
2019-04-04 12:00:00 9.3 3 Nordeste 14 Este 0 -- -- 51
2019-04-04 11:00:00 6.9 3 Este 9 Este 0 -- -- 61
2019-04-04 10:00:00 4.6 4 Nordeste 8 Nordeste 0 -- -- 74
2019-04-04 09:00:00 -0.8 0 Calma 6 Sur 0 -- -- 99
2019-04-04 08:00:00 -2.8 4 Sur 9 Sudoeste 0 -- -- 95
2019-04-04 07:00:00 -2.4 2 Sur 4 Oeste 0 -- -- 92
2019-04-04 06:00:00 -1 2 Sudoeste 10 Sur 0 -- -- 92
2019-04-04 05:00:00 -1.4 3 Este 7 Sudoeste 0 -- -- 92
2019-04-04 04:00:00 -0.8 2 Sur 7 Nordeste 0 -- -- 88
2019-04-04 03:00:00 0.8 0 Calma 9 Sudeste 0 -- -- 86
2019-04-04 02:00:00 0.7 0 Calma 12 Noroeste 0 -- -- 85
2019-04-04 01:00:00 2.5 9 Noroeste 19 Noroeste 0 -- -- 80
2019-04-04 00:00:00 2.6 3 Nordeste 12 Sudoeste 0 -- -- 79
2019-04-03 23:00:00 3.6 5 Norte 14 Norte 0 -- -- 76
2019-04-03 22:00:00 4.5 5 Norte 15 Noroeste 0 -- -- 71
2019-04-03 21:00:00 5.9 9 Noroeste 20 Noroeste 0 -- -- 73
2019-04-03 20:00:00 7.7 6 Noroeste 23 Noroeste 0 -- -- 76
2019-04-03 19:00:00 8.4 15 Noroeste 22 Noroeste 0 -- -- 76
2019-04-03 18:00:00 6.3 19 Oeste 52 Noroeste 0.4 -- -- 88
2019-04-03 17:00:00 8.5 35 Noroeste 56 Noroeste 0.2 -- -- 73
2019-04-03 16:00:00 9.5 8 Norte 39 Norte 0 -- -- 64
2019-04-03 15:00:00 11.3 16 Noroeste 26 Norte 0 -- -- 62
2019-04-03 14:00:00 8.5 6 Noroeste 16 Noroeste 0 -- -- 80
2019-04-03 13:00:00 6.7 13 Norte 30 Norte 0.2 -- -- 88
2019-04-03 12:00:00 8.2 12 Noroeste 21 Noroeste 0 -- -- 83
2019-04-03 11:00:00 8.2 10 Norte 20 Noroeste 0 -- -- 80
2019-04-03 10:00:00 8 12 Noroeste 23 Noroeste 0 -- -- 83
2019-04-03 09:00:00 8.4 12 Noroeste 20 Noroeste 0 -- -- 80
2019-04-03 08:00:00 8.5 4 Noroeste 10 Noroeste 0 -- -- 89
2019-04-03 07:00:00 8.6 7 Noroeste 13 Noroeste 0 -- -- 87
2019-04-03 06:00:00 8.8 6 Noroeste 13 Noroeste 0 -- -- 86
2019-04-03 05:00:00 9.1 9 Noroeste 23 Noroeste 0 -- -- 84
2019-04-03 04:00:00 9.5 10 Norte 18 Norte 0 -- -- 81
2019-04-03 03:00:00 10.1 9 Norte 15 Norte 0 -- -- 78
2019-04-03 02:00:00 8.9 5 Noroeste 10 Noroeste 0 -- -- 83
2019-04-03 01:00:00 9.1 7 Noroeste 12 Noroeste 0 -- -- 79
2019-04-03 00:00:00 9.8 8 Noroeste 15 Noroeste 0 -- -- 75
2019-04-02 23:00:00 10.6 10 Noroeste 24 Norte 0 -- -- 70
2019-04-02 22:00:00 12 15 Norte 27 Noroeste 0 -- -- 65
2019-04-02 21:00:00 12.8 15 Norte 28 Norte 0 -- -- 63
2019-04-02 20:00:00 15 12 Nordeste 21 Sudoeste 0 -- -- 55
2019-04-02 19:00:00 17.2 6 Oeste 14 Sudoeste 0 -- -- 52
2019-04-02 18:00:00 18 5 Nordeste 13 Nordeste 0 -- -- 42
2019-04-02 17:00:00 17.7 4 Norte 19 Noroeste 0 -- -- 45
2019-04-02 16:00:00 19.5 7 Noroeste 22 Noroeste 0 -- -- 36
2019-04-02 15:00:00 18.6 11 Norte 20 Norte 0 -- -- 42
2019-04-02 14:00:00 18.1 9 Noroeste 24 Noroeste 0 -- -- 52
2019-04-02 13:00:00 16.5 10 Norte 21 Norte 0 -- -- 57
2019-04-02 12:00:00 14.8 9 Noroeste 17 Noroeste 0 -- -- 73
2019-04-02 11:00:00 12 0 Calma 7 Norte 0 -- -- 84
2019-04-02 10:00:00 9.6 0 Calma 12 Noroeste 0 -- -- 98
2019-04-02 09:00:00 7.9 6 Noroeste 10 Noroeste 0 -- -- 100
2019-04-02 08:00:00 7.2 5 Noroeste 7 Noroeste 0 -- -- 100
2019-04-02 07:00:00 7.4 5 Sudoeste 10 Noroeste 0 -- -- 99
2019-04-02 06:00:00 8.9 6 Noroeste 17 Noroeste 0 -- -- 100
2019-04-02 05:00:00 9.1 6 Noroeste 10 Noroeste 0 -- -- 99
2019-04-02 04:00:00 8.9 5 Noroeste 9 Norte 0 -- -- 99
2019-04-02 03:00:00 6.3 0 Calma 5 Sudeste 0 -- -- 98
2019-04-02 02:00:00 6.3 3 Oeste 4 Sudoeste 0 -- -- 96
2019-04-02 01:00:00 7.4 2 Sudeste 5 Sudoeste 0 -- -- 95
2019-04-02 00:00:00 8 0 Calma 5 Sudoeste 0 -- -- 93
2019-04-01 23:00:00 9.5 5 Sudoeste 6 Sudoeste 0 -- -- 90
2019-04-01 22:00:00 11.2 3 Sudeste 5 Este 0 -- -- 86
2019-04-01 21:00:00 12.8 2 Sur 14 Sur 1 -- -- 86
2019-04-01 20:00:00 14.2 11 Sur 18 Sudeste 0 -- -- 75
2019-04-01 19:00:00 15.6 12 Sur 19 Sudeste 0 -- -- 66
2019-04-01 18:00:00 16.4 7 Sudeste 15 Sudeste 0 -- -- 64
2019-04-01 17:00:00 16.3 9 Sudeste 18 Sudeste 0 -- -- 63
2019-04-01 16:00:00 15.6 10 Este 18 Este 0 -- -- 65
2019-04-01 15:00:00 14.7 11 Sudeste 21 Sudeste 0 -- -- 68
2019-04-01 14:00:00 13.7 10 Sudeste 24 Este 0 -- -- 73
2019-04-01 13:00:00 13.4 13 Sudeste 20 Sudeste 0 -- -- 75
2019-04-01 12:00:00 12.4 9 Este 17 Sudeste 0 -- -- 82
2019-04-01 11:00:00 10.8 6 Sudeste 11 Sudeste 0 -- -- 92
2019-04-01 10:00:00 9.8 5 Sudeste 11 Sudeste 0.2 -- -- 97
2019-04-01 09:00:00 8.9 4 Sudeste 9 Sudeste 0 -- -- 97
2019-04-01 08:00:00 8.4 0 Calma 4 Sudeste 0 -- -- 96
2019-04-01 07:00:00 8.6 3 Sudeste 6 Sudeste 0 -- -- 97
2019-04-01 06:00:00 8.5 2 Sur 5 Sur 0 -- -- 97
2019-04-01 05:00:00 8.4 0 Calma 5 Este 0.2 -- -- 97
2019-04-01 04:00:00 8.4 4 Este 6 Este 0 -- -- 97
2019-04-01 03:00:00 8.4 4 Este 9 Este 0.4 -- -- 96
2019-04-01 02:00:00 8.7 3 Este 10 Oeste 0.4 -- -- 93
2019-04-01 01:00:00 8.9 12 Sudoeste 22 Sudoeste 1 -- -- 91
2019-04-01 00:00:00 9.2 14 Sudoeste 24 Sudoeste 1 -- -- 89
2019-03-31 23:00:00 9.9 16 Sudoeste 23 Sudoeste 0.4 -- -- 84
2019-03-31 22:00:00 11.1 17 Sudoeste 26 Sudoeste 0 -- -- 66
2019-03-31 21:00:00 11.6 10 Sudeste 18 Sudeste 0 -- -- 66
2019-03-31 20:00:00 12.7 13 Sudeste 21 Sudeste 0 -- -- 58
2019-03-31 19:00:00 13.8 13 Sudeste 24 Sudeste 0 -- -- 58
2019-03-31 18:00:00 14.7 15 Sudeste 26 Sur 0 -- -- 50
2019-03-31 17:00:00 15.4 17 Sudeste 24 Sudeste 0 -- -- 48
2019-03-31 16:00:00 15.7 14 Sudeste 24 Sur 0 -- -- 53
2019-03-31 15:00:00 16.6 13 Sudeste 23 Sudeste 0 -- -- 51
2019-03-31 14:00:00 16 12 Sudeste 23 Sur 0 -- -- 51
2019-03-31 13:00:00 15.1 11 Sudeste 21 Sur 0 -- -- 54
2019-03-31 12:00:00 13.5 5 Sudeste 14 Sudeste 0 -- -- 61
2019-03-31 11:00:00 10.8 5 Sur 10 Sur 0 -- -- 68
2019-03-31 10:00:00 6.8 2 Sudoeste 5 Sudoeste 0 -- -- 82
2019-03-31 09:00:00 2.3 2 Sudoeste 4 Este 0 -- -- 97
2019-03-31 08:00:00 0.8 0 Calma 3 Sur 0 -- -- 95
2019-03-31 07:00:00 0.9 2 Sur 6 Sudoeste 0 -- -- 94
2019-03-31 06:00:00 1.3 2 Nordeste 5 Sudoeste 0 -- -- 92
2019-03-31 05:00:00 2.1 0 Calma 4 Sudoeste 0 -- -- 87
2019-03-31 03:00:00 4.5 5 Sudoeste 9 Sudeste 0 -- -- 84
2019-03-31 01:00:00 5.3 4 Sur 8 Sur 0 -- -- 77
2019-03-31 00:00:00 6.2 8 Sur 14 Sudeste 0 -- -- 73
2019-03-30 23:00:00 6.2 3 Sur 11 Sur 0 -- -- 64
2019-03-30 22:00:00 7.7 5 Sudoeste 14 Nordeste 0 -- -- 73
2019-03-30 21:00:00 9.4 7 Sur 11 Sudoeste 0 -- -- 60
2019-03-30 20:00:00 13.5 6 Sur 14 Sudeste 0 -- -- 41
2019-03-30 19:00:00 17 12 Sudeste 26 Sudeste 0 -- -- 34
2019-03-30 18:00:00 18.9 17 Sudeste 29 Sudeste 0 -- -- 29
2019-03-30 17:00:00 19.8 17 Sudeste 28 Sudeste 0 -- -- 25
2019-03-30 16:00:00 19.9 19 Sudeste 31 Sudeste 0 -- -- 28
2019-03-30 15:00:00 19.7 18 Sudeste 32 Sudeste 0 -- -- 28
2019-03-30 14:00:00 18.9 19 Sudeste 31 Sudeste 0 -- -- 34
2019-03-30 13:00:00 17.6 18 Sudeste 32 Sudeste 0 -- -- 35
2019-03-30 12:00:00 16.1 18 Sudeste 27 Sudeste 0 -- -- 45
2019-03-30 11:00:00 13.5 18 Sudeste 30 Este 0 -- -- 59
2019-03-30 10:00:00 12.1 18 Sudeste 33 Sudeste 0 -- -- 66
2019-03-30 09:00:00 9.5 15 Sudeste 25 Sudeste 0 -- -- 76
2019-03-30 08:00:00 4.6 5 Sudeste 8 Sur 0 -- -- 89
2019-03-30 07:00:00 2.2 5 Sur 9 Sur 0 -- -- 87
2019-03-30 06:00:00 3.6 7 Sur 9 Sudeste 0 -- -- 85
2019-03-30 05:00:00 3.5 8 Sudeste 14 Sudeste 0 -- -- 81
2019-03-30 04:00:00 3.7 5 Sudeste 8 Sur 0 -- -- 80
2019-03-30 03:00:00 4.3 7 Sur 16 Este 0 -- -- 79
2019-03-30 02:00:00 5.6 7 Sudeste 11 Sudeste 0 -- -- 71
2019-03-30 01:00:00 7.9 4 Sudeste 24 Sudeste 0 -- -- 63
2019-03-30 00:00:00 10.5 17 Sudeste 30 Sudeste 0 -- -- 57
2019-03-29 23:00:00 11.8 17 Sudeste 35 Sur 0 -- -- 53
2019-03-29 22:00:00 12.8 20 Sudeste 33 Sudeste 0 -- -- 48
2019-03-29 21:00:00 14.1 25 Sudeste 36 Sudeste 0 -- -- 45
2019-03-29 20:00:00 15.5 20 Sudeste 42 Sudeste 0 -- -- 38
2019-03-29 19:00:00 17.3 19 Sudeste 33 Sudeste 0 -- -- 30
2019-03-29 18:00:00 19.1 23 Sudeste 36 Sudeste 0 -- -- 26
2019-03-29 17:00:00 20.3 22 Sudeste 37 Sudeste 0 -- -- 26
2019-03-29 16:00:00 20.7 25 Sudeste 38 Sudeste 0 -- -- 27
2019-03-29 15:00:00 20.9 23 Sudeste 35 Sudeste 0 -- -- 27
2019-03-29 14:00:00 19.6 21 Sudeste 39 Este 0 -- -- 32
2019-03-29 13:00:00 17.7 26 Sudeste 35 Este 0 -- -- 37
2019-03-29 12:00:00 16.1 24 Sudeste 36 Sudeste 0 -- -- 41
2019-03-29 11:00:00 14.9 24 Sudeste 34 Sudeste 0 -- -- 46
2019-03-29 10:00:00 12.9 18 Sudeste 25 Sudeste 0 -- -- 50
2019-03-29 09:00:00 8.9 9 Sudeste 14 Sudeste 0 -- -- 64
2019-03-29 08:00:00 1.7 4 Sudeste 8 Sudoeste 0 -- -- 95
2019-03-29 07:00:00 -0.2 5 Sur 8 Sur 0 -- -- 92
2019-03-29 06:00:00 0 3 Sudeste 5 Sudeste 0 -- -- 91
2019-03-29 05:00:00 0.4 2 Sur 6 Sudoeste 0 -- -- 88
2019-03-29 04:00:00 1.3 0 Calma 8 Sudoeste 0 -- -- 86
2019-03-29 03:00:00 2.8 3 Sudoeste 5 Oeste 0 -- -- 79
2019-03-29 02:00:00 5.2 5 Norte 13 Noroeste 0 -- -- 69
2019-03-29 01:00:00 5.6 10 Noroeste 13 Noroeste 0 -- -- 65
2019-03-29 00:00:00 7.4 9 Oeste 16 Noroeste 0 -- -- 58
2019-03-28 23:00:00 8.9 11 Noroeste 18 Noroeste 0 -- -- 53
2019-03-28 22:00:00 10.4 12 Noroeste 22 Noroeste 0 -- -- 53
2019-03-28 21:00:00 12 13 Noroeste 22 Noroeste 0 -- -- 50
2019-03-28 20:00:00 13.5 9 Norte 25 Norte 0 -- -- 47
2019-03-28 19:00:00 15.6 10 Norte 22 Nordeste 0 -- -- 45
2019-03-28 18:00:00 18.2 15 Norte 23 Norte 0 -- -- 38
2019-03-28 17:00:00 20.3 13 Noroeste 29 Noroeste 0 -- -- 32
2019-03-28 16:00:00 20.4 17 Noroeste 28 Noroeste 0 -- -- 33
2019-03-28 15:00:00 19.2 13 Noroeste 30 Norte 0 -- -- 33
2019-03-28 14:00:00 18.9 15 Noroeste 33 Noroeste 0 -- -- 36
2019-03-28 13:00:00 17.5 17 Noroeste 30 Noroeste 0 -- -- 41
2019-03-28 12:00:00 15.9 16 Noroeste 30 Noroeste 0 -- -- 42
2019-03-28 11:00:00 14 17 Norte 32 Noroeste 0 -- -- 49
2019-03-28 10:00:00 12.7 19 Noroeste 30 Noroeste 0 -- -- 53
2019-03-28 09:00:00 9 13 Noroeste 22 Noroeste 0 -- -- 63
2019-03-28 08:00:00 5.8 11 Noroeste 20 Norte 0 -- -- 75
2019-03-28 07:00:00 4.5 9 Norte 16 Noroeste 0 -- -- 78
2019-03-28 06:00:00 4.9 9 Noroeste 18 Norte 0 -- -- 77
2019-03-28 05:00:00 5.1 10 Noroeste 28 Noroeste 0 -- -- 75
2019-03-28 04:00:00 6.5 19 Noroeste 30 Noroeste 0 -- -- 68
2019-03-28 03:00:00 6.3 15 Noroeste 25 Noroeste 0 -- -- 66
2019-03-28 02:00:00 7.7 18 Noroeste 33 Noroeste 0 -- -- 60
2019-03-28 01:00:00 7.9 20 Noroeste 35 Noroeste 0 -- -- 57
2019-03-28 00:00:00 8.3 22 Noroeste 41 Noroeste 0 -- -- 53
2019-03-27 23:00:00 9 24 Noroeste 37 Noroeste 0 -- -- 50
2019-03-27 22:00:00 9.8 21 Noroeste 40 Noroeste 0 -- -- 40
2019-03-27 21:00:00 10.9 23 Noroeste 41 Noroeste 0 -- -- 37
2019-03-27 20:00:00 12 15 Norte 41 Norte 0 -- -- 33
2019-03-27 19:00:00 14.4 27 Norte 44 Norte 0 -- -- 31
2019-03-27 18:00:00 17.1 27 Norte 44 Norte 0 -- -- 24
2019-03-27 17:00:00 18.5 28 Norte 44 Norte 0 -- -- 20
2019-03-27 16:00:00 19.5 27 Norte 44 Norte 0 -- -- 17
2019-03-27 15:00:00 19.9 25 Norte 39 Norte 0 -- -- 16
2019-03-27 14:00:00 19.1 20 Norte 36 Norte 0 -- -- 18
2019-03-27 13:00:00 18.2 21 Norte 33 Norte 0 -- -- 18
2019-03-27 12:00:00 17.2 19 Noroeste 35 Noroeste 0 -- -- 30
2019-03-27 11:00:00 14.8 20 Noroeste 32 Norte 0 -- -- 31
2019-03-27 10:00:00 12.7 16 Noroeste 27 Noroeste 0 -- -- 37
2019-03-27 09:00:00 8.3 12 Noroeste 19 Noroeste 0 -- -- 55
2019-03-27 08:00:00 4.8 10 Noroeste 23 Noroeste 0 -- -- 70
2019-03-27 07:00:00 1.4 7 Oeste 14 Noroeste 0 -- -- 75
2019-03-27 06:00:00 2.6 9 Noroeste 13 Noroeste 0 -- -- 72
2019-03-27 05:00:00 3.9 8 Noroeste 14 Noroeste 0 -- -- 68
2019-03-27 04:00:00 4.9 10 Noroeste 25 Noroeste 0 -- -- 63
2019-03-27 03:00:00 5.7 17 Noroeste 26 Noroeste 0 -- -- 57
2019-03-27 02:00:00 7.1 13 Noroeste 30 Noroeste 0 -- -- 54
2019-03-27 01:00:00 8.5 21 Noroeste 33 Noroeste 0 -- -- 47
2019-03-27 00:00:00 8.8 21 Noroeste 37 Noroeste 0 -- -- 47